Ana Sayfa
METAR-TAF:

METAR-TAF

Havaalanları :

Ocean County, New Jersey, Amerika Birleşik Devletleri

Enlem: 39-55-39N, Boylam: 074-17-33W, yükseklik: 25 m

Güncel hava durumu gözlemi

Rapor saat 15:56 UTC de 1 saat ve 1 dakika önce yapıldı.
Rüzgar güney/güneybatıdan 7 kt
Sıcaklık 7°C
Nem 49%
Basınç 1030 hPa
Görüş mesafesi: 16.1 km
Açık gökyüzü

METAR: KMJX 141556Z AUTO 21007KT 10SM CLR 07/M03 A3043 RMK AO2 SLP307 T00671033

Saat: 11:57 (16:57 UTC)


TAF: eksik

4.000'den fazla havaalanı için hava durumu gözlemleri ve tahminleri (METAR ve TAF raporları).

Kullanılabilir istasyonlar harita üzerinde sarı ve kırmızı noktalarla gösterilir.

İstasyonun adını görmek için fareyi noktanın üzerinde gezdirin.

Sonrasında hava gözlem ve tahminlerini görmek için tıklayın.

Haritayı değiştirmek için: yaklaştırmak için siyah artı işaretli yeşil düğmeye ve uzaklaştırmak için de eksi işaretli düğmeye hızla tıklayın; bitişik haritalar için yeşil okları kullanın.


METAR-TAF: